KESWICK RESERVOIR (KES)

Elevation: 596' · SACRAMENTO R basin · Operator: US Bureau of Reclamation

Provisional data, subject to change.
Query executed Tuesday at 4:59:04   clock

Select a sensor type for a plot of data.
Note: Reservoir Flows are daily averages.

Earlier

Date RES ELE    STORAGE    RES CHG    OUTFLOW    INFLOW   
 FEET   AF   AF   CFS   CFS  
05/02/2016 582.74 21128 -42 5192 5175
05/03/2016 583.80 21769 641 5192 5520
05/04/2016 583.31 21471 -298 5672 5524
05/05/2016 583.33 21483 12 5696 5704
05/06/2016 584.85 22414 931 5692 6162
05/07/2016 585.66 22921 507 5756 6012
05/08/2016 585.03 22526 -395 5842 5644
05/09/2016 584.43 22155 -371 5953 5768
05/10/2016 585.07 22551 396 6237 6438
05/11/2016 584.54 22223 -328 6242 6078
05/12/2016 583.98 21878 -345 6241 6071
05/13/2016 583.22 21417 -461 6199 5970
05/14/2016 582.55 21014 -403 6193 5998
05/15/2016 581.80 20569 -445 6194 5973
05/16/2016 581.11 20164 -405 6193 5994
05/17/2016 581.93 20645 481 6195 6443
05/18/2016 582.30 20865 220 6192 6307
05/19/2016 584.09 21946 1081 6191 6742
05/20/2016 584.30 22075 129 6193 6265
05/21/2016 583.95 21860 -215 6193 6085
05/22/2016 582.56 21020 -840 6193 5771
05/23/2016 583.50 21587 567 6192 6480
05/24/2016 585.43 22777 1190 6194 6800
05/25/2016 585.17 22614 -163 6192 6111
05/26/2016 584.41 22143 -471 6229 5997
05/27/2016 585.29 22689 546 6243 6523
05/28/2016 583.63 21665 -1024 6242 5732
05/29/2016 584.72 22334 669 6241 6583
05/30/2016 583.26 21441 -893 6243 5799
05/31/2016 -- -- -- -- --

Later | Latest

Warning! This data is preliminary and subject to revision.

Show KES Map | Plot KES Data | 1 Month KES Data | Real-Time KES Data | KES Info